createdAt,value
2022-08-22T00:00:13.662Z,39.34
2022-08-22T00:01:13.463Z,37.77
2022-08-22T00:02:13.510Z,39.54
2022-08-22T00:02:42.335Z,39.81
2022-08-22T00:02:54.492Z,39.00
2022-08-22T00:02:56.965Z,42.57
2022-08-22T00:02:58.380Z,39.62
2022-08-22T00:03:01.344Z,40.15
2022-08-22T00:03:01.452Z,40.27
2022-08-22T00:03:18.816Z,37.91
2022-08-22T00:04:15.452Z,38.12
2022-08-22T00:05:13.504Z,38.75
2022-08-22T00:06:13.490Z,39.87
2022-08-22T00:07:13.461Z,37.98
2022-08-22T00:08:13.490Z,38.78
2022-08-22T00:09:13.410Z,40.35
2022-08-22T00:10:20.988Z,39.31
2022-08-22T00:11:14.479Z,37.64
2022-08-22T00:12:13.411Z,37.80
2022-08-22T00:13:13.402Z,38.26
2022-08-22T00:14:13.414Z,40.31
2022-08-22T00:15:31.502Z,38.78
2022-08-22T00:16:15.407Z,38.53
2022-08-22T00:17:13.362Z,38.43
2022-08-22T00:18:13.363Z,39.41
2022-08-22T00:19:13.372Z,38.81
2022-08-22T00:20:13.363Z,38.58
2022-08-22T00:21:13.404Z,38.25
2022-08-22T00:22:13.326Z,38.76
2022-08-22T00:23:13.363Z,38.97
2022-08-22T00:24:13.359Z,38.76
2022-08-22T00:25:25.866Z,38.44
2022-08-22T00:26:14.294Z,38.45
2022-08-22T00:27:13.291Z,38.55
2022-08-22T00:28:13.303Z,38.34
2022-08-22T00:29:13.307Z,38.69
2022-08-22T00:30:14.330Z,44.91
2022-08-22T00:31:13.470Z,38.75
2022-08-22T00:32:13.258Z,40.21
2022-08-22T00:33:13.252Z,38.42
2022-08-22T00:34:13.307Z,38.59
2022-08-22T00:35:13.270Z,41.57
2022-08-22T00:36:13.238Z,38.34
2022-08-22T00:37:13.228Z,39.36
2022-08-22T00:38:13.243Z,38.08
2022-08-22T00:39:13.209Z,38.98
2022-08-22T00:40:13.290Z,38.79
2022-08-22T00:41:14.110Z,38.95
2022-08-22T00:42:13.185Z,38.21
2022-08-22T00:43:13.189Z,38.38
2022-08-22T00:44:13.199Z,38.62
2022-08-22T00:45:13.209Z,38.41
2022-08-22T00:46:13.167Z,38.38
2022-08-22T00:47:13.164Z,39.86
2022-08-22T00:48:14.400Z,40.93
2022-08-22T00:49:13.151Z,44.59
2022-08-22T00:50:13.180Z,41.64
2022-08-22T00:51:13.136Z,39.97
2022-08-22T00:52:13.125Z,38.74
2022-08-22T00:53:13.114Z,40.17
2022-08-22T00:54:17.805Z,40.75
2022-08-22T00:55:13.112Z,39.02
2022-08-22T00:56:13.114Z,39.26
2022-08-22T00:57:13.111Z,38.57
2022-08-22T00:58:13.181Z,38.68
2022-08-22T00:59:23.761Z,38.39
2022-08-22T01:00:14.083Z,38.29
2022-08-22T01:01:13.182Z,38.70
2022-08-22T01:02:13.105Z,39.06
2022-08-22T01:03:13.085Z,40.58
2022-08-22T01:04:13.063Z,40.24
2022-08-22T01:05:13.049Z,39.17
2022-08-22T01:06:13.054Z,39.18
2022-08-22T01:07:13.018Z,38.41
2022-08-22T01:08:13.024Z,40.32
2022-08-22T01:09:13.019Z,46.65
2022-08-22T01:10:13.000Z,40.25
2022-08-22T01:11:13.031Z,39.34
2022-08-22T01:12:13.001Z,38.98
2022-08-22T01:13:13.006Z,40.77
2022-08-22T01:14:12.972Z,40.98
2022-08-22T01:15:12.963Z,39.99
2022-08-22T01:16:12.967Z,41.48
2022-08-22T01:17:13.013Z,38.83
2022-08-22T01:18:12.950Z,38.80
2022-08-22T01:19:13.513Z,38.84
2022-08-22T01:20:12.937Z,39.58
2022-08-22T01:21:12.928Z,38.89
2022-08-22T01:22:12.999Z,40.58
2022-08-22T01:23:12.936Z,41.04
2022-08-22T01:24:12.919Z,41.00
2022-08-22T01:25:12.925Z,38.84
2022-08-22T01:26:12.897Z,38.41
2022-08-22T01:27:12.932Z,38.77
2022-08-22T01:28:12.896Z,38.54
2022-08-22T01:29:12.879Z,39.45
2022-08-22T01:30:12.886Z,39.26
2022-08-22T01:31:12.867Z,38.24
2022-08-22T01:32:12.882Z,38.15
2022-08-22T01:33:12.859Z,38.05
2022-08-22T01:34:13.203Z,38.23
2022-08-22T01:35:12.825Z,38.37
2022-08-22T01:36:12.819Z,39.49
2022-08-22T01:37:12.809Z,38.80
2022-08-22T01:38:13.093Z,37.82
2022-08-22T01:39:12.802Z,37.87
2022-08-22T01:40:12.913Z,38.02
2022-08-22T01:41:12.793Z,37.72
2022-08-22T01:42:12.783Z,37.77
2022-08-22T01:43:12.820Z,39.58
2022-08-22T01:44:12.772Z,38.67
2022-08-22T01:45:12.776Z,39.26
2022-08-22T01:46:12.781Z,38.16
2022-08-22T01:47:13.749Z,41.54
2022-08-22T01:48:12.778Z,41.20
2022-08-22T01:49:12.736Z,38.81
2022-08-22T01:50:12.725Z,39.00
2022-08-22T01:51:12.716Z,40.67
2022-08-22T01:52:12.708Z,39.04
2022-08-22T01:53:12.739Z,38.35
2022-08-22T01:54:12.691Z,39.52
2022-08-22T01:55:12.682Z,40.85
2022-08-22T01:56:12.671Z,39.43
2022-08-22T01:57:12.674Z,40.23
2022-08-22T01:58:12.660Z,38.37
2022-08-22T01:59:12.675Z,39.17
2022-08-22T02:00:12.656Z,40.16
2022-08-22T02:01:12.697Z,40.10
2022-08-22T02:02:13.647Z,39.01
2022-08-22T02:03:12.671Z,39.83
2022-08-22T02:04:12.662Z,41.19
2022-08-22T02:05:12.625Z,39.25
2022-08-22T02:06:12.616Z,40.40
2022-08-22T02:07:12.612Z,39.34
2022-08-22T02:08:12.604Z,38.81
2022-08-22T02:09:14.495Z,39.83
2022-08-22T02:10:13.580Z,39.34
2022-08-22T02:11:12.580Z,39.79
2022-08-22T02:12:21.481Z,39.14
2022-08-22T02:13:13.577Z,39.11
2022-08-22T02:14:12.595Z,41.15
2022-08-22T02:15:12.554Z,39.63
2022-08-22T02:16:12.549Z,38.96
2022-08-22T02:17:12.546Z,40.68
2022-08-22T02:18:12.549Z,38.86
2022-08-22T02:19:12.515Z,38.69
2022-08-22T02:20:12.558Z,39.10
2022-08-22T02:21:12.513Z,39.91
2022-08-22T02:22:12.493Z,41.08
2022-08-22T02:23:12.491Z,38.75
2022-08-22T02:24:12.550Z,38.74
2022-08-22T02:25:12.517Z,39.17
2022-08-22T02:26:12.468Z,39.87
2022-08-22T02:27:12.476Z,40.50
2022-08-22T02:28:12.454Z,43.82
2022-08-22T02:29:12.447Z,39.42
2022-08-22T02:30:12.450Z,38.79
2022-08-22T02:31:16.614Z,39.03
2022-08-22T02:32:12.441Z,38.62
2022-08-22T02:33:12.530Z,39.08
2022-08-22T02:34:12.494Z,39.45
2022-08-22T02:35:12.472Z,41.74
2022-08-22T02:36:12.441Z,40.07
2022-08-22T02:37:12.410Z,38.88
2022-08-22T02:38:12.391Z,40.38
2022-08-22T02:39:12.396Z,38.95
2022-08-22T02:40:12.419Z,39.73
2022-08-22T02:41:12.363Z,41.78
2022-08-22T02:42:12.431Z,41.14
2022-08-22T02:43:12.354Z,38.92
2022-08-22T02:44:12.354Z,40.86
2022-08-22T02:45:12.338Z,40.72
2022-08-22T02:46:12.330Z,38.71
2022-08-22T02:47:13.372Z,38.48
2022-08-22T02:48:12.311Z,39.16
2022-08-22T02:49:12.306Z,41.00
2022-08-22T02:50:13.100Z,38.95
2022-08-22T02:51:12.300Z,38.44
2022-08-22T02:52:12.325Z,38.48
2022-08-22T02:53:12.278Z,39.64
2022-08-22T02:54:12.281Z,42.66
2022-08-22T02:55:13.272Z,41.52
2022-08-22T02:56:12.255Z,41.01
2022-08-22T02:57:14.443Z,39.43
2022-08-22T02:58:12.276Z,39.02
2022-08-22T02:59:12.264Z,40.61
2022-08-22T03:00:29.723Z,42.07
2022-08-22T03:01:13.271Z,40.77
2022-08-22T03:02:12.223Z,41.73
2022-08-22T03:03:12.305Z,44.66
2022-08-22T03:04:12.206Z,40.83
2022-08-22T03:05:12.202Z,42.78
2022-08-22T03:06:12.214Z,41.71
2022-08-22T03:07:19.098Z,38.64
2022-08-22T03:08:13.106Z,40.99
2022-08-22T03:09:12.219Z,41.56
2022-08-22T03:10:12.174Z,42.43
2022-08-22T03:11:12.159Z,40.94
2022-08-22T03:12:12.158Z,40.69
2022-08-22T03:13:12.154Z,40.23
2022-08-22T03:14:12.181Z,40.54
2022-08-22T03:15:12.129Z,39.83
2022-08-22T03:16:12.135Z,41.99
2022-08-22T03:17:12.122Z,42.86
2022-08-22T03:18:12.114Z,43.18
2022-08-22T03:19:13.186Z,40.55
2022-08-22T03:20:13.127Z,40.01
2022-08-22T03:21:12.095Z,40.48
2022-08-22T03:22:12.096Z,42.76
2022-08-22T03:23:12.100Z,43.59
2022-08-22T03:24:12.092Z,42.10
2022-08-22T03:25:12.082Z,42.64
2022-08-22T03:26:12.059Z,42.27
2022-08-22T03:27:12.067Z,43.07
2022-08-22T03:28:12.074Z,41.09
2022-08-22T03:29:12.049Z,44.21
2022-08-22T03:30:12.034Z,44.77
2022-08-22T03:31:12.093Z,41.40
2022-08-22T03:32:12.025Z,43.34
2022-08-22T03:33:12.117Z,42.12
2022-08-22T03:34:12.010Z,41.28
2022-08-22T03:35:12.005Z,42.85
2022-08-22T03:36:12.006Z,43.07
2022-08-22T03:37:11.986Z,42.46
2022-08-22T03:38:12.023Z,42.34
2022-08-22T03:39:16.459Z,44.67
2022-08-22T03:40:13.017Z,44.78
2022-08-22T03:41:11.955Z,46.15
2022-08-22T03:42:11.956Z,45.08
2022-08-22T03:43:11.996Z,42.15
2022-08-22T03:44:11.933Z,43.63
2022-08-22T03:45:11.938Z,41.29
2022-08-22T03:46:11.928Z,44.64
2022-08-22T03:47:11.915Z,41.94
2022-08-22T03:48:11.918Z,40.43
2022-08-22T03:49:11.929Z,42.87
2022-08-22T03:50:11.894Z,41.90
2022-08-22T03:51:11.903Z,43.48
2022-08-22T03:52:11.880Z,42.09
2022-08-22T03:53:15.510Z,40.48
2022-08-22T03:54:11.903Z,43.73
2022-08-22T03:55:11.858Z,44.44
2022-08-22T03:56:11.855Z,42.05
2022-08-22T03:57:11.849Z,41.44
2022-08-22T03:58:17.140Z,44.81
2022-08-22T03:59:12.872Z,44.61
2022-08-22T04:00:11.846Z,43.75
2022-08-22T04:01:11.851Z,44.81
2022-08-22T04:02:31.455Z,43.58
2022-08-22T04:03:12.801Z,39.84
2022-08-22T04:04:11.835Z,41.91
2022-08-22T04:05:11.860Z,42.83
2022-08-22T04:06:12.932Z,43.85
2022-08-22T04:07:17.003Z,42.61
2022-08-22T04:08:13.074Z,41.77
2022-08-22T04:09:11.805Z,40.79
2022-08-22T04:10:11.807Z,42.44
2022-08-22T04:11:11.750Z,43.22
2022-08-22T04:12:11.739Z,44.01
2022-08-22T04:13:11.730Z,46.55
2022-08-22T04:14:11.776Z,43.48
2022-08-22T04:15:11.750Z,43.23
2022-08-22T04:16:11.749Z,45.74
2022-08-22T04:17:11.700Z,45.94
2022-08-22T04:18:11.709Z,44.34
2022-08-22T04:19:11.692Z,44.65
2022-08-22T04:20:11.705Z,46.33
2022-08-22T04:21:11.744Z,45.23
2022-08-22T04:22:11.680Z,41.99
2022-08-22T04:23:11.662Z,41.40
2022-08-22T04:24:11.666Z,44.36
2022-08-22T04:25:11.659Z,44.29
2022-08-22T04:26:12.623Z,45.25
2022-08-22T04:27:11.645Z,44.50
2022-08-22T04:28:11.631Z,45.98
2022-08-22T04:29:11.638Z,46.32
2022-08-22T04:30:11.653Z,43.73
2022-08-22T04:31:11.601Z,44.57
2022-08-22T04:32:14.557Z,43.87
2022-08-22T04:33:12.581Z,44.90
2022-08-22T04:34:11.612Z,46.60
2022-08-22T04:35:11.629Z,44.53
2022-08-22T04:36:11.620Z,43.39
2022-08-22T04:37:11.568Z,44.24
2022-08-22T04:38:11.566Z,45.70
2022-08-22T04:39:11.553Z,40.30
2022-08-22T04:40:11.610Z,44.35
2022-08-22T04:41:11.578Z,43.09
2022-08-22T04:42:31.788Z,44.75
2022-08-22T04:43:13.529Z,45.02
2022-08-22T04:44:11.513Z,44.44
2022-08-22T04:45:11.528Z,44.30
2022-08-22T04:46:11.530Z,46.37
2022-08-22T04:47:12.068Z,45.39
2022-08-22T04:48:11.514Z,44.15
2022-08-22T04:49:11.478Z,44.25
2022-08-22T04:50:11.509Z,43.37
2022-08-22T04:51:11.507Z,42.34
2022-08-22T04:52:11.459Z,41.05
2022-08-22T04:53:11.452Z,43.80
2022-08-22T04:54:11.438Z,43.90
2022-08-22T04:55:11.446Z,44.62
2022-08-22T04:56:11.511Z,43.79
2022-08-22T04:57:11.421Z,44.21
2022-08-22T04:58:11.426Z,43.60
2022-08-22T04:59:11.423Z,42.89
2022-08-22T05:00:11.399Z,45.28
2022-08-22T05:01:11.405Z,42.20
2022-08-22T05:02:11.473Z,43.65
2022-08-22T05:03:11.383Z,42.61
2022-08-22T05:04:11.373Z,42.81
2022-08-22T05:05:13.410Z,45.89
2022-08-22T05:06:11.363Z,43.62
2022-08-22T05:07:11.392Z,42.44
2022-08-22T05:08:11.565Z,45.93
2022-08-22T05:09:15.928Z,44.87
2022-08-22T05:10:12.647Z,42.79
2022-08-22T05:11:11.328Z,41.07
2022-08-22T05:12:11.331Z,44.25
2022-08-22T05:13:11.311Z,45.61
2022-08-22T05:14:11.310Z,45.65
2022-08-22T05:15:11.321Z,44.99
2022-08-22T05:16:11.293Z,44.52
2022-08-22T05:17:11.315Z,44.19
2022-08-22T05:18:11.275Z,43.61
2022-08-22T05:19:16.045Z,44.73
2022-08-22T05:20:13.279Z,44.60
2022-08-22T05:21:11.306Z,45.24
2022-08-22T05:22:11.293Z,43.49
2022-08-22T05:23:17.683Z,42.68
2022-08-22T05:24:12.242Z,44.50
2022-08-22T05:25:11.227Z,44.80
2022-08-22T05:26:11.233Z,42.81
2022-08-22T05:27:11.281Z,43.09
2022-08-22T05:28:11.213Z,43.33
2022-08-22T05:29:11.204Z,44.94
2022-08-22T05:30:11.208Z,44.82
2022-08-22T05:31:11.189Z,43.56
2022-08-22T05:32:11.234Z,42.68
2022-08-22T05:33:11.183Z,43.35
2022-08-22T05:34:11.240Z,43.88
2022-08-22T05:35:11.162Z,43.95
2022-08-22T05:36:11.203Z,42.97
2022-08-22T05:37:11.138Z,43.09
2022-08-22T05:38:11.167Z,44.02
2022-08-22T05:39:11.137Z,43.49
2022-08-22T05:40:11.207Z,42.05
2022-08-22T05:41:11.117Z,42.86
2022-08-22T05:42:11.106Z,42.60
2022-08-22T05:43:11.130Z,43.05
2022-08-22T05:44:11.097Z,43.97
2022-08-22T05:45:12.250Z,42.57
2022-08-22T05:46:11.096Z,45.31
2022-08-22T05:47:11.081Z,43.99
2022-08-22T05:48:11.092Z,43.16
2022-08-22T05:49:11.052Z,42.52
2022-08-22T05:50:11.082Z,42.85
2022-08-22T05:51:11.041Z,44.22
2022-08-22T05:52:11.039Z,41.71
2022-08-22T05:53:11.055Z,42.54
2022-08-22T05:54:11.123Z,42.82
2022-08-22T05:55:11.014Z,42.61
2022-08-22T05:56:11.028Z,44.25
2022-08-22T05:57:11.010Z,43.39
2022-08-22T05:58:11.034Z,43.85
2022-08-22T05:59:10.993Z,42.31
2022-08-22T06:00:11.000Z,43.69
2022-08-22T06:01:10.976Z,41.65
2022-08-22T06:02:11.083Z,44.07
2022-08-22T06:03:11.124Z,42.35
2022-08-22T06:04:10.947Z,42.89
2022-08-22T06:05:12.136Z,43.09
2022-08-22T06:06:11.957Z,42.57
2022-08-22T06:07:10.929Z,43.87
2022-08-22T06:08:10.948Z,43.08
2022-08-22T06:09:10.968Z,42.40
2022-08-22T06:10:10.925Z,42.82
2022-08-22T06:11:10.912Z,42.42
2022-08-22T06:12:15.061Z,41.27
2022-08-22T06:13:12.886Z,42.51
2022-08-22T06:14:10.919Z,43.33
2022-08-22T06:15:12.082Z,42.17
2022-08-22T06:16:10.887Z,42.06
2022-08-22T06:17:10.859Z,39.94
2022-08-22T06:18:10.852Z,41.13
2022-08-22T06:19:19.307Z,41.85
2022-08-22T06:20:11.838Z,44.22
2022-08-22T06:21:10.840Z,44.03
2022-08-22T06:22:13.714Z,45.15
2022-08-22T06:23:11.824Z,47.17
2022-08-22T06:24:11.271Z,49.44
2022-08-22T06:25:10.816Z,48.73
2022-08-22T06:26:21.042Z,41.29
2022-08-22T06:27:11.789Z,40.72
2022-08-22T06:28:10.786Z,43.26
2022-08-22T06:29:10.797Z,47.34
2022-08-22T06:30:10.774Z,43.30
2022-08-22T06:31:10.763Z,42.35
2022-08-22T06:32:10.752Z,42.12
2022-08-22T06:33:10.761Z,45.18
2022-08-22T06:34:10.750Z,45.11
2022-08-22T06:35:10.727Z,44.70
2022-08-22T06:36:10.710Z,46.04
2022-08-22T06:37:10.735Z,42.55
2022-08-22T06:38:10.703Z,44.06
2022-08-22T06:39:10.765Z,43.43
2022-08-22T06:40:10.739Z,43.90
2022-08-22T06:41:10.679Z,43.26
2022-08-22T06:42:15.855Z,42.41
2022-08-22T06:43:12.676Z,42.80
2022-08-22T06:44:10.702Z,44.93
2022-08-22T06:45:10.662Z,42.60
2022-08-22T06:46:10.658Z,43.62
2022-08-22T06:47:10.643Z,43.27
2022-08-22T06:48:10.633Z,44.04
2022-08-22T06:49:10.658Z,43.40
2022-08-22T06:50:13.546Z,45.14
2022-08-22T06:51:10.614Z,43.06
2022-08-22T06:52:10.678Z,41.62
2022-08-22T06:53:10.608Z,41.38
2022-08-22T06:54:10.621Z,42.41
2022-08-22T06:55:10.587Z,42.18
2022-08-22T06:56:10.594Z,43.06
2022-08-22T06:57:10.576Z,41.83
2022-08-22T06:58:10.585Z,42.90
2022-08-22T06:59:10.613Z,44.00
2022-08-22T07:00:10.556Z,42.76
2022-08-22T07:01:12.375Z,42.98
2022-08-22T07:02:10.635Z,42.52
2022-08-22T07:03:10.596Z,43.74
2022-08-22T07:04:10.617Z,41.36
2022-08-22T07:05:10.531Z,43.83
2022-08-22T07:06:10.524Z,41.71
2022-08-22T07:07:10.508Z,43.45
2022-08-22T07:08:10.499Z,43.61
2022-08-22T07:09:10.591Z,44.19
2022-08-22T07:10:10.495Z,42.66
2022-08-22T07:11:10.471Z,39.89
2022-08-22T07:12:10.475Z,40.04
2022-08-22T07:13:10.512Z,40.96
2022-08-22T07:14:10.447Z,39.15
2022-08-22T07:15:10.476Z,41.80
2022-08-22T07:16:10.452Z,40.66
2022-08-22T07:17:10.463Z,42.39
2022-08-22T07:18:11.061Z,42.84
2022-08-22T07:19:10.416Z,41.81
2022-08-22T07:20:10.549Z,42.39
2022-08-22T07:21:10.409Z,44.78
2022-08-22T07:22:10.400Z,42.71
2022-08-22T07:23:10.402Z,43.17
2022-08-22T07:24:10.399Z,40.71
2022-08-22T07:25:10.394Z,40.79
2022-08-22T07:26:10.364Z,42.26
2022-08-22T07:27:10.382Z,41.17
2022-08-22T07:28:16.123Z,41.19
2022-08-22T07:29:11.645Z,42.58
2022-08-22T07:30:11.487Z,43.04
2022-08-22T07:31:10.349Z,42.67
2022-08-22T07:32:10.314Z,38.99
2022-08-22T07:33:25.827Z,42.06
2022-08-22T07:34:11.313Z,42.19
2022-08-22T07:35:10.350Z,41.59
2022-08-22T07:36:10.306Z,41.49
2022-08-22T07:37:10.282Z,40.07
2022-08-22T07:38:10.281Z,39.16
2022-08-22T07:39:11.066Z,40.27
2022-08-22T07:40:10.354Z,41.09
2022-08-22T07:41:10.280Z,41.45
2022-08-22T07:42:10.255Z,43.12
2022-08-22T07:43:10.256Z,42.38
2022-08-22T07:44:10.249Z,41.45
2022-08-22T07:45:10.254Z,40.28
2022-08-22T07:46:10.251Z,41.03
2022-08-22T07:47:10.222Z,40.54
2022-08-22T07:48:10.209Z,40.58
2022-08-22T07:49:10.395Z,39.62
2022-08-22T07:50:10.251Z,41.89
2022-08-22T07:51:10.200Z,41.10
2022-08-22T07:52:10.201Z,41.47
2022-08-22T07:53:10.187Z,41.34
2022-08-22T07:54:10.198Z,43.02
2022-08-22T07:55:10.187Z,40.45
2022-08-22T07:56:10.194Z,39.68
2022-08-22T07:57:10.146Z,40.77
2022-08-22T07:58:10.207Z,41.37
2022-08-22T07:59:13.209Z,40.23
2022-08-22T08:00:10.159Z,39.91
2022-08-22T08:01:10.243Z,39.65
2022-08-22T08:02:10.143Z,40.17
2022-08-22T08:03:10.106Z,39.65
2022-08-22T08:04:10.133Z,37.60
2022-08-22T08:05:10.134Z,39.61
2022-08-22T08:06:10.131Z,40.11
2022-08-22T08:07:10.077Z,38.78
2022-08-22T08:08:10.073Z,37.66
2022-08-22T08:09:11.128Z,41.89
2022-08-22T08:10:13.085Z,40.82
2022-08-22T08:11:11.071Z,39.50
2022-08-22T08:12:10.066Z,40.38
2022-08-22T08:13:10.041Z,39.77
2022-08-22T08:14:10.044Z,40.10
2022-08-22T08:15:10.039Z,38.41
2022-08-22T08:16:10.022Z,41.31
2022-08-22T08:17:10.051Z,39.89
2022-08-22T08:18:10.003Z,38.55
2022-08-22T08:19:09.991Z,38.32
2022-08-22T08:20:10.073Z,40.85
2022-08-22T08:21:09.984Z,38.49
2022-08-22T08:22:09.996Z,39.71
2022-08-22T08:23:09.982Z,41.25
2022-08-22T08:24:09.968Z,38.73
2022-08-22T08:25:09.947Z,38.76
2022-08-22T08:26:10.950Z,39.47
2022-08-22T08:27:09.991Z,39.99
2022-08-22T08:28:10.180Z,39.53
2022-08-22T08:29:10.135Z,38.45
2022-08-22T08:30:14.694Z,38.21
2022-08-22T08:31:11.929Z,39.93
2022-08-22T08:32:09.927Z,38.96
2022-08-22T08:33:25.972Z,39.24
2022-08-22T08:34:10.883Z,39.34
2022-08-22T08:35:09.892Z,37.59
2022-08-22T08:36:09.891Z,39.28
2022-08-22T08:37:09.888Z,36.23
2022-08-22T08:38:09.894Z,38.85
2022-08-22T08:39:10.125Z,36.96
2022-08-22T08:40:09.909Z,38.55
2022-08-22T08:41:09.833Z,42.51
2022-08-22T08:42:09.840Z,39.27
2022-08-22T08:43:10.893Z,36.91
2022-08-22T08:44:09.820Z,36.50
2022-08-22T08:45:09.825Z,38.09
2022-08-22T08:46:09.817Z,37.53
2022-08-22T08:47:09.824Z,41.25
2022-08-22T08:48:09.844Z,39.29
2022-08-22T08:49:09.786Z,38.08
2022-08-22T08:50:09.789Z,35.58
2022-08-22T08:51:09.777Z,37.93
2022-08-22T08:52:09.980Z,39.07
2022-08-22T08:53:09.808Z,38.62
2022-08-22T08:54:09.751Z,37.24
2022-08-22T08:55:19.991Z,38.91
2022-08-22T08:56:10.897Z,38.75
2022-08-22T08:57:09.728Z,39.13
2022-08-22T08:58:10.284Z,37.25
2022-08-22T08:59:09.961Z,39.66
2022-08-22T09:00:09.724Z,37.31
2022-08-22T09:01:09.733Z,36.82
2022-08-22T09:02:09.677Z,40.17
2022-08-22T09:03:10.693Z,36.99
2022-08-22T09:04:15.063Z,40.96
2022-08-22T09:05:09.678Z,39.10
2022-08-22T09:06:09.687Z,37.06
2022-08-22T09:07:09.721Z,36.61
2022-08-22T09:08:11.704Z,36.92
2022-08-22T09:09:09.673Z,37.09
2022-08-22T09:10:09.762Z,34.97
2022-08-22T09:11:12.094Z,40.70
2022-08-22T09:12:09.670Z,39.60
2022-08-22T09:13:12.454Z,39.81
2022-08-22T09:14:09.647Z,34.27
2022-08-22T09:15:14.312Z,38.08
2022-08-22T09:16:10.099Z,36.68
2022-08-22T09:17:09.598Z,38.33
2022-08-22T09:18:09.592Z,36.58
2022-08-22T09:19:09.662Z,36.51
2022-08-22T09:20:17.781Z,36.62
2022-08-22T09:21:10.572Z,36.36
2022-08-22T09:23:10.945Z,34.94
2022-08-22T09:24:09.817Z,36.56
2022-08-22T09:25:09.568Z,35.82
2022-08-22T09:26:09.615Z,34.87
2022-08-22T09:27:10.464Z,32.99
2022-08-22T09:28:11.548Z,37.60
2022-08-22T09:29:11.030Z,36.96
2022-08-22T09:30:11.531Z,35.49
2022-08-22T09:31:21.936Z,36.99
2022-08-22T09:32:13.130Z,37.10
2022-08-22T09:33:09.480Z,34.86
2022-08-22T09:34:09.497Z,37.48
2022-08-22T09:35:09.704Z,35.11
2022-08-22T09:36:12.182Z,36.37
2022-08-22T09:37:09.447Z,37.49
2022-08-22T09:38:09.448Z,38.21
2022-08-22T09:39:09.437Z,36.57
2022-08-22T09:40:13.323Z,39.11
2022-08-22T09:41:11.642Z,36.82
2022-08-22T09:42:09.426Z,37.46
2022-08-22T09:43:09.404Z,38.38
2022-08-22T09:44:09.405Z,40.59
2022-08-22T09:45:09.508Z,36.18
2022-08-22T09:46:09.393Z,39.72
2022-08-22T09:47:09.374Z,36.26
2022-08-22T09:48:09.384Z,36.05
2022-08-22T09:49:09.370Z,38.31
2022-08-22T09:50:09.752Z,38.15
2022-08-22T09:51:31.205Z,36.82
2022-08-22T09:52:15.466Z,35.44
2022-08-22T09:53:09.346Z,34.36
2022-08-22T09:54:09.331Z,34.68
2022-08-22T09:55:09.328Z,34.41
2022-08-22T09:56:11.680Z,35.05
2022-08-22T09:57:09.306Z,34.77
2022-08-22T09:58:11.253Z,34.67
2022-08-22T09:59:09.698Z,36.02
2022-08-22T10:00:09.298Z,32.02
2022-08-22T10:01:09.358Z,33.28
2022-08-22T10:02:15.704Z,35.51
2022-08-22T10:03:10.273Z,36.64
2022-08-22T10:04:09.259Z,32.91
2022-08-22T10:05:09.272Z,32.14
2022-08-22T10:06:09.287Z,33.13
2022-08-22T10:07:11.939Z,33.77
2022-08-22T10:08:11.325Z,32.68
2022-08-22T10:09:09.306Z,33.87
2022-08-22T10:10:09.223Z,34.67
2022-08-22T10:11:09.218Z,35.09
2022-08-22T10:12:12.456Z,34.92
2022-08-22T10:13:10.397Z,33.67
2022-08-22T10:14:09.200Z,32.92
2022-08-22T10:15:09.184Z,33.92
2022-08-22T10:16:09.188Z,35.72
2022-08-22T10:17:09.208Z,34.88
2022-08-22T10:18:10.440Z,35.88
2022-08-22T10:19:09.165Z,32.30
2022-08-22T10:20:10.169Z,37.24
2022-08-22T10:21:09.166Z,37.05
2022-08-22T10:22:09.147Z,34.20
2022-08-22T10:23:09.208Z,35.49
2022-08-22T10:24:09.145Z,34.60
2022-08-22T10:25:09.127Z,35.36
2022-08-22T10:26:09.121Z,33.38
2022-08-22T10:27:10.107Z,33.04
2022-08-22T10:28:10.630Z,30.28
2022-08-22T10:29:09.145Z,34.04
2022-08-22T10:30:09.099Z,37.78
2022-08-22T10:31:09.106Z,33.43
2022-08-22T10:32:10.728Z,35.19
2022-08-22T10:33:12.084Z,36.87
2022-08-22T10:34:09.101Z,34.01
2022-08-22T10:35:09.067Z,36.15
2022-08-22T10:36:12.086Z,34.84
2022-08-22T10:37:09.059Z,35.43
2022-08-22T10:38:10.796Z,31.33
2022-08-22T10:39:11.651Z,29.38
2022-08-22T10:40:09.091Z,32.07
2022-08-22T10:41:09.375Z,34.05
2022-08-22T10:42:09.028Z,33.67
2022-08-22T10:43:09.322Z,33.18
2022-08-22T10:44:09.069Z,33.52
2022-08-22T10:45:09.033Z,31.74
2022-08-22T10:46:12.473Z,31.09
2022-08-22T10:47:09.001Z,32.31
2022-08-22T10:48:10.454Z,36.02
2022-08-22T10:49:09.038Z,33.29
2022-08-22T10:50:10.728Z,32.99
2022-08-22T10:51:09.084Z,34.78
2022-08-22T10:52:15.598Z,33.05
2022-08-22T10:53:10.972Z,33.18
2022-08-22T10:54:08.961Z,31.59
2022-08-22T10:55:09.956Z,32.56
2022-08-22T10:56:08.938Z,31.58
2022-08-22T10:57:08.934Z,29.84
2022-08-22T10:58:08.928Z,34.86
2022-08-22T10:59:08.978Z,33.72
2022-08-22T11:00:08.974Z,32.18
2022-08-22T11:01:37.998Z,29.51
2022-08-22T11:02:10.012Z,31.60
2022-08-22T11:03:09.916Z,31.73
2022-08-22T11:04:08.924Z,29.19
2022-08-22T11:05:08.912Z,32.54
2022-08-22T11:06:08.877Z,31.78
2022-08-22T11:07:09.380Z,35.35
2022-08-22T11:08:08.889Z,30.63
2022-08-22T11:09:08.857Z,38.96
2022-08-22T11:10:08.891Z,33.05
2022-08-22T11:11:08.846Z,29.85
2022-08-22T11:12:08.848Z,32.70
2022-08-22T11:13:08.830Z,33.05
2022-08-22T11:14:08.860Z,36.05
2022-08-22T11:15:08.852Z,34.38
2022-08-22T11:16:09.484Z,33.49
2022-08-22T11:17:23.598Z,35.00
2022-08-22T11:18:13.043Z,32.38
2022-08-22T11:19:15.235Z,31.46
2022-08-22T11:20:09.862Z,32.93
2022-08-22T11:21:08.774Z,34.65
2022-08-22T11:22:10.051Z,31.11
2022-08-22T11:23:08.781Z,32.43
2022-08-22T11:24:08.753Z,38.24
2022-08-22T11:25:08.784Z,37.08
2022-08-22T11:26:08.752Z,35.23
2022-08-22T11:27:08.756Z,34.09
2022-08-22T11:28:08.724Z,29.56
2022-08-22T11:29:13.323Z,33.93
2022-08-22T11:30:08.820Z,30.64
2022-08-22T11:31:08.708Z,31.06
2022-08-22T11:32:08.687Z,31.91
2022-08-22T11:33:09.577Z,31.86
2022-08-22T11:34:08.732Z,30.52
2022-08-22T11:35:09.319Z,29.44
2022-08-22T11:36:08.698Z,31.59
2022-08-22T11:37:11.120Z,30.74
2022-08-22T11:38:10.959Z,31.36
2022-08-22T11:39:18.448Z,37.87
2022-08-22T11:40:11.797Z,31.05
2022-08-22T11:41:08.642Z,31.36
2022-08-22T11:42:08.639Z,44.58
2022-08-22T11:43:18.049Z,32.97
2022-08-22T11:44:09.601Z,31.92
2022-08-22T11:45:08.715Z,30.79
2022-08-22T11:46:08.642Z,31.38
2022-08-22T11:47:08.602Z,31.39
2022-08-22T11:48:08.637Z,30.18
2022-08-22T11:49:08.569Z,31.26
2022-08-22T11:50:11.387Z,32.19
2022-08-22T11:51:13.157Z,30.35
2022-08-22T11:52:08.634Z,32.39
2022-08-22T11:53:08.621Z,34.15
2022-08-22T11:54:08.530Z,32.75
2022-08-22T11:55:08.522Z,32.41
2022-08-22T11:56:08.560Z,32.25
2022-08-22T11:57:08.581Z,34.11
2022-08-22T11:58:08.520Z,30.36
2022-08-22T11:59:08.586Z,32.92
2022-08-22T12:00:09.638Z,32.04
2022-08-22T12:01:11.825Z,31.73
2022-08-22T12:02:10.635Z,34.06
2022-08-22T12:03:08.528Z,33.21
2022-08-22T12:04:09.867Z,32.98
2022-08-22T12:05:08.454Z,34.74
2022-08-22T12:06:08.476Z,34.93
2022-08-22T12:07:08.531Z,34.30
2022-08-22T12:08:08.426Z,34.07
2022-08-22T12:09:13.696Z,33.49
2022-08-22T12:10:13.608Z,34.42
2022-08-22T12:11:08.427Z,32.67
2022-08-22T12:12:08.421Z,34.06
2022-08-22T12:13:08.469Z,32.96
2022-08-22T12:14:08.401Z,34.68
2022-08-22T12:15:09.173Z,35.69
2022-08-22T12:16:08.403Z,31.88
2022-08-22T12:17:08.818Z,32.64
2022-08-22T12:18:08.422Z,31.36
2022-08-22T12:19:08.598Z,34.76
2022-08-22T12:20:16.546Z,32.38
2022-08-22T12:21:10.900Z,34.05
2022-08-22T12:22:08.485Z,30.41
2022-08-22T12:23:08.473Z,32.25
2022-08-22T12:24:11.345Z,31.52
2022-08-22T12:25:09.362Z,31.72
2022-08-22T12:26:10.992Z,29.64
2022-08-22T12:27:08.396Z,30.39
2022-08-22T12:28:08.355Z,29.26
2022-08-22T12:29:15.396Z,31.47
2022-08-22T12:30:12.861Z,34.50
2022-08-22T12:31:08.426Z,30.47
2022-08-22T12:32:10.114Z,29.81
2022-08-22T12:33:08.449Z,31.61
2022-08-22T12:34:08.348Z,33.33
2022-08-22T12:35:13.402Z,34.17
2022-08-22T12:36:17.803Z,33.69
2022-08-22T12:37:08.398Z,32.11
2022-08-22T12:38:29.331Z,36.04
2022-08-22T12:39:09.308Z,32.11
2022-08-22T12:40:08.916Z,37.83
2022-08-22T12:41:08.429Z,31.71
2022-08-22T12:42:08.240Z,33.33
2022-08-22T12:43:08.224Z,29.54
2022-08-22T12:44:08.212Z,31.35
2022-08-22T12:45:08.273Z,29.84
2022-08-22T12:46:12.997Z,32.80
2022-08-22T12:47:09.406Z,32.75